Altoona, Pennsylvania
Current Conditions -  °F | °C
As of 9:31 AM on Thursday 23 Oct 2014 (Local Time) from KAOO Reporting Station
Scattered Clouds Scattered Clouds  
Wind Chill: 50°   Ceiling: Unl
Heat Index: 50°   Visibility: 10mi
Dew Point: 41°   Wind: 8mph
Humidity: 71%   Direction: 350°N
Pressure: 30.01"   Gusts: NA
Location:  40.51°N, 78.4°W
Report Text: KAOO 231331Z AUTO 35007KT 10SM SCT024 10/05 A3001 RMK AO2 T01000050
Loading
Personal Weather Stations






























Interactive Weather Map
Tropical Storm Tracking
New forecast layout! Learn more

10-Day Weather Forecast

Advertisements
Track Severe Weather on mobile